createdAt,value
2023-01-21T00:01:04.558Z,32.50
2023-01-21T00:03:31.721Z,37.03
2023-01-21T00:05:58.777Z,35.85
2023-01-21T00:08:27.101Z,39.35
2023-01-21T00:10:55.343Z,34.55
2023-01-21T00:13:22.644Z,42.70
2023-01-21T00:15:49.764Z,36.05
2023-01-21T00:18:16.854Z,30.65
2023-01-21T00:20:45.622Z,30.45
2023-01-21T00:23:12.899Z,36.15
2023-01-21T00:25:40.155Z,37.67
2023-01-21T00:28:07.254Z,33.50
2023-01-21T00:30:34.307Z,35.40
2023-01-21T00:33:01.386Z,31.08
2023-01-21T00:35:28.447Z,36.47
2023-01-21T00:37:56.158Z,37.17
2023-01-21T00:40:23.251Z,30.80
2023-01-21T00:42:50.277Z,36.78
2023-01-21T00:45:17.530Z,33.47
2023-01-21T00:47:44.586Z,35.95
2023-01-21T00:50:11.631Z,28.33
2023-01-21T00:52:38.785Z,33.35
2023-01-21T00:55:06.434Z,28.20
2023-01-21T00:57:33.706Z,29.88
2023-01-21T01:00:00.937Z,34.22
2023-01-21T01:02:27.964Z,27.33
2023-01-21T01:04:55.180Z,36.00
2023-01-21T01:07:22.282Z,37.33
2023-01-21T01:09:49.309Z,27.50
2023-01-21T01:12:16.425Z,30.48
2023-01-21T01:14:43.422Z,32.05
2023-01-21T01:17:10.979Z,32.70
2023-01-21T01:19:37.979Z,32.38
2023-01-21T01:22:04.977Z,34.20
2023-01-21T01:24:32.105Z,29.75
2023-01-21T01:26:59.119Z,31.77
2023-01-21T01:29:26.472Z,31.23
2023-01-21T01:31:53.521Z,30.75
2023-01-21T01:34:20.523Z,30.92
2023-01-21T01:36:49.489Z,28.92
2023-01-21T01:39:16.487Z,32.03
2023-01-21T01:41:43.647Z,33.25
2023-01-21T01:44:48.002Z,29.92
2023-01-21T01:47:15.778Z,26.85
2023-01-21T01:49:43.119Z,34.85
2023-01-21T01:52:13.078Z,32.10
2023-01-21T01:54:45.742Z,31.67
2023-01-21T01:57:15.855Z,34.70
2023-01-21T01:59:43.436Z,29.80
2023-01-21T02:02:14.961Z,37.53
2023-01-21T02:04:47.079Z,31.30
2023-01-21T02:07:15.800Z,27.95
2023-01-21T02:09:42.980Z,36.50
2023-01-21T02:12:10.255Z,30.73
2023-01-21T02:14:42.804Z,38.33
2023-01-21T02:17:31.074Z,34.00
2023-01-21T02:20:41.966Z,37.63
2023-01-21T02:23:23.086Z,34.50
2023-01-21T02:26:33.662Z,29.25
2023-01-21T02:29:09.863Z,33.95
2023-01-21T02:31:54.093Z,30.90
2023-01-21T02:34:42.648Z,31.80
2023-01-21T02:37:43.897Z,32.42
2023-01-21T02:40:21.883Z,34.83
2023-01-21T02:43:01.133Z,32.50
2023-01-21T02:45:38.674Z,32.95
2023-01-21T02:48:17.022Z,25.17
2023-01-21T02:50:50.514Z,37.28
2023-01-21T02:53:29.072Z,27.10
2023-01-21T02:56:00.221Z,27.52
2023-01-21T02:58:30.780Z,37.45
2023-01-21T03:01:06.456Z,31.80
2023-01-21T03:04:07.563Z,33.83
2023-01-21T03:06:56.047Z,39.03
2023-01-21T03:09:26.377Z,30.88
2023-01-21T03:11:56.318Z,33.30
2023-01-21T03:14:48.124Z,31.05
2023-01-21T03:17:41.609Z,35.40
2023-01-21T03:20:26.535Z,43.03
2023-01-21T03:22:59.526Z,31.40
2023-01-21T03:25:31.179Z,31.90
2023-01-21T03:28:00.600Z,31.52
2023-01-21T03:30:29.923Z,28.88
2023-01-21T03:32:58.424Z,38.30
2023-01-21T03:35:37.565Z,31.80
2023-01-21T03:38:16.388Z,33.78
2023-01-21T03:40:48.762Z,31.95
2023-01-21T03:43:15.792Z,32.80
2023-01-21T03:46:04.178Z,35.03
2023-01-21T03:48:41.484Z,29.08
2023-01-21T03:51:26.246Z,31.80
2023-01-21T03:53:57.826Z,33.08
2023-01-21T03:56:26.347Z,32.58
2023-01-21T03:58:53.879Z,29.88
2023-01-21T04:01:21.287Z,36.78
2023-01-21T04:03:48.510Z,27.80
2023-01-21T04:06:23.303Z,26.67
2023-01-21T04:08:51.146Z,24.25
2023-01-21T04:11:18.345Z,33.35
2023-01-21T04:13:45.433Z,34.70
2023-01-21T04:16:12.686Z,35.13
2023-01-21T04:18:39.929Z,33.13
2023-01-21T04:21:07.228Z,32.58
2023-01-21T04:23:34.308Z,39.67
2023-01-21T04:26:01.369Z,34.90
2023-01-21T04:28:28.393Z,29.63
2023-01-21T04:30:55.442Z,30.90
2023-01-21T04:33:22.543Z,28.02
2023-01-21T04:35:49.601Z,41.45
2023-01-21T04:38:17.003Z,31.98
2023-01-21T04:40:44.137Z,27.83
2023-01-21T04:43:11.188Z,35.42
2023-01-21T04:45:38.273Z,33.85
2023-01-21T04:48:05.437Z,30.20
2023-01-21T04:50:32.505Z,31.27
2023-01-21T04:52:59.524Z,36.05
2023-01-21T04:55:26.589Z,37.97
2023-01-21T04:57:53.680Z,38.55
2023-01-21T05:00:20.930Z,28.75
2023-01-21T05:02:48.035Z,44.95
2023-01-21T05:05:15.172Z,33.97
2023-01-21T05:07:42.250Z,34.50
2023-01-21T05:10:15.911Z,42.92
2023-01-21T05:12:43.480Z,39.78
2023-01-21T05:15:12.114Z,30.38
2023-01-21T05:17:39.192Z,32.75
2023-01-21T05:20:06.895Z,48.42
2023-01-21T05:22:33.881Z,37.72
2023-01-21T05:25:00.995Z,28.70
2023-01-21T05:27:28.142Z,37.45
2023-01-21T05:29:56.860Z,30.73
2023-01-21T05:32:24.434Z,33.38
2023-01-21T05:34:51.491Z,31.85
2023-01-21T05:37:18.524Z,34.33
2023-01-21T05:39:45.678Z,35.42
2023-01-21T05:42:13.212Z,41.47
2023-01-21T05:44:40.260Z,39.17
2023-01-21T05:47:08.758Z,38.97
2023-01-21T05:49:35.816Z,37.38
2023-01-21T05:52:02.982Z,61.83
2023-01-21T05:54:30.296Z,42.90
2023-01-21T05:56:57.435Z,40.28
2023-01-21T05:59:24.503Z,36.35
2023-01-21T06:01:51.507Z,45.92
2023-01-21T06:04:18.591Z,47.67
2023-01-21T06:06:45.630Z,44.45
2023-01-21T06:09:13.217Z,45.53
2023-01-21T06:11:42.054Z,41.42
2023-01-21T06:14:09.163Z,47.25
2023-01-21T06:16:36.245Z,42.05
2023-01-21T06:19:03.311Z,49.03
2023-01-21T06:21:30.298Z,55.88
2023-01-21T06:23:57.485Z,45.83
2023-01-21T06:26:27.022Z,43.42
2023-01-21T06:28:57.124Z,50.40
2023-01-21T06:31:24.430Z,49.28
2023-01-21T06:33:52.108Z,49.35
2023-01-21T06:36:19.379Z,49.60
2023-01-21T06:38:46.445Z,45.72
2023-01-21T06:41:13.539Z,43.78
2023-01-21T06:43:41.247Z,60.55
2023-01-21T06:46:08.570Z,48.78
2023-01-21T06:48:35.708Z,57.97
2023-01-21T06:51:03.213Z,45.42
2023-01-21T06:53:30.269Z,50.83
2023-01-21T06:55:57.336Z,60.60
2023-01-21T06:58:24.529Z,45.00
2023-01-21T07:00:51.613Z,62.85
2023-01-21T07:03:18.614Z,45.53
2023-01-21T07:05:45.612Z,48.40
2023-01-21T07:08:13.192Z,82.00
2023-01-21T07:10:40.413Z,55.20
2023-01-21T07:13:07.496Z,48.03
2023-01-21T07:15:34.457Z,56.13
2023-01-21T07:18:01.570Z,44.58
2023-01-21T07:20:28.624Z,68.68
2023-01-21T07:22:56.023Z,46.83
2023-01-21T07:25:23.115Z,85.97
2023-01-21T07:27:50.176Z,68.22
2023-01-21T07:30:19.421Z,58.55
2023-01-21T07:32:47.495Z,54.40
2023-01-21T07:35:15.316Z,51.35
2023-01-21T07:37:43.204Z,89.80
2023-01-21T07:40:11.613Z,58.63
2023-01-21T07:42:39.198Z,65.85
2023-01-21T07:45:07.039Z,56.97
2023-01-21T07:47:34.213Z,116.30
2023-01-21T07:50:04.893Z,41.60
2023-01-21T07:52:32.508Z,61.85
2023-01-21T07:54:59.571Z,56.80
2023-01-21T07:57:26.622Z,55.75
2023-01-21T07:59:53.667Z,60.65
2023-01-21T08:02:20.931Z,57.13
2023-01-21T08:04:48.132Z,48.53
2023-01-21T08:07:15.176Z,44.47
2023-01-21T08:09:42.919Z,61.53
2023-01-21T08:12:10.626Z,52.72
2023-01-21T08:14:38.729Z,62.45
2023-01-21T08:17:05.740Z,64.13
2023-01-21T08:19:32.806Z,56.90
2023-01-21T08:21:59.846Z,52.28
2023-01-21T08:24:26.895Z,76.40
2023-01-21T08:26:57.974Z,64.45
2023-01-21T08:29:26.095Z,56.92
2023-01-21T08:31:53.516Z,51.88
2023-01-21T08:34:20.678Z,51.88
2023-01-21T08:36:47.736Z,53.83
2023-01-21T08:39:18.046Z,56.67
2023-01-21T08:41:45.951Z,59.30
2023-01-21T08:44:13.346Z,66.55
2023-01-21T08:46:40.459Z,63.88
2023-01-21T08:49:07.651Z,56.63
2023-01-21T08:51:34.718Z,57.67
2023-01-21T08:54:01.747Z,54.92
2023-01-21T08:56:28.763Z,58.42
2023-01-21T08:58:57.697Z,58.33
2023-01-21T09:01:26.206Z,53.33
2023-01-21T09:03:57.929Z,60.40
2023-01-21T09:06:27.428Z,60.70
2023-01-21T09:08:55.344Z,69.85
2023-01-21T09:11:23.766Z,67.53
2023-01-21T09:13:50.916Z,71.53
2023-01-21T09:16:21.038Z,61.35
2023-01-21T09:18:49.259Z,60.70
2023-01-21T09:21:16.402Z,62.95
2023-01-21T09:23:44.446Z,65.50
2023-01-21T09:26:17.154Z,59.88
2023-01-21T09:28:46.771Z,58.53
2023-01-21T09:31:16.851Z,51.95
2023-01-21T09:33:46.512Z,55.03
2023-01-21T09:36:16.222Z,59.15
2023-01-21T09:38:44.600Z,57.83
2023-01-21T09:41:46.168Z,63.03
2023-01-21T09:44:31.174Z,64.35
2023-01-21T09:47:04.518Z,62.33
2023-01-21T09:50:08.633Z,53.08
2023-01-21T09:52:44.294Z,59.58
2023-01-21T09:55:25.355Z,48.75
2023-01-21T09:58:16.626Z,67.60
2023-01-21T10:00:52.546Z,64.70
2023-01-21T10:03:47.619Z,61.88
2023-01-21T10:06:21.629Z,53.03
2023-01-21T10:09:00.318Z,52.88
2023-01-21T10:11:53.732Z,50.33
2023-01-21T10:14:55.983Z,61.53
2023-01-21T10:17:31.798Z,70.85
2023-01-21T10:20:21.967Z,77.53
2023-01-21T10:23:28.291Z,58.45
2023-01-21T10:25:59.052Z,58.60
2023-01-21T10:28:30.507Z,58.00
2023-01-21T10:31:08.598Z,61.53
2023-01-21T10:33:35.833Z,50.97
2023-01-21T10:36:17.435Z,46.17
2023-01-21T10:38:53.422Z,49.80
2023-01-21T10:41:50.094Z,56.72
2023-01-21T10:44:26.088Z,58.33
2023-01-21T10:47:14.710Z,58.20
2023-01-21T10:50:19.181Z,49.45
2023-01-21T10:55:26.364Z,49.85
2023-01-21T10:58:28.970Z,64.22
2023-01-21T11:01:01.225Z,64.57
2023-01-21T11:03:47.325Z,62.10
2023-01-21T11:06:17.901Z,61.70
2023-01-21T11:08:49.631Z,53.40
2023-01-21T11:11:28.039Z,46.83
2023-01-21T11:13:56.623Z,50.88
2023-01-21T11:16:45.558Z,57.38
2023-01-21T11:19:21.644Z,55.90
2023-01-21T11:22:04.245Z,43.08
2023-01-21T11:24:41.937Z,51.13
2023-01-21T11:27:23.213Z,55.72
2023-01-21T11:29:50.677Z,45.13
2023-01-21T11:32:21.893Z,51.78
2023-01-21T11:34:51.850Z,40.95
2023-01-21T11:37:24.973Z,55.63
2023-01-21T11:39:59.095Z,46.40
2023-01-21T11:42:26.797Z,56.95
2023-01-21T11:45:01.371Z,48.40
2023-01-21T11:47:36.294Z,39.63
2023-01-21T11:50:35.736Z,57.83
2023-01-21T11:53:11.694Z,45.28
2023-01-21T11:55:46.529Z,42.80
2023-01-21T11:58:25.058Z,37.78
2023-01-21T12:00:56.548Z,42.15
2023-01-21T12:03:37.399Z,53.85
2023-01-21T12:06:07.311Z,54.90
2023-01-21T12:08:39.503Z,46.40
2023-01-21T12:11:08.079Z,61.25
2023-01-21T12:13:47.983Z,43.83
2023-01-21T12:16:30.449Z,47.15
2023-01-21T12:19:22.151Z,47.13
2023-01-21T12:22:07.217Z,51.67
2023-01-21T12:24:36.996Z,47.78
2023-01-21T12:27:32.613Z,41.63
2023-01-21T12:30:21.508Z,43.10
2023-01-21T12:32:56.718Z,44.67
2023-01-21T12:35:28.102Z,43.38
2023-01-21T12:38:01.963Z,52.88
2023-01-21T12:40:36.968Z,47.10
2023-01-21T12:43:13.208Z,38.42
2023-01-21T12:45:49.262Z,46.13
2023-01-21T12:48:29.320Z,44.97
2023-01-21T12:51:25.040Z,55.40
2023-01-21T12:54:16.977Z,36.80
2023-01-21T12:56:50.767Z,43.92
2023-01-21T12:59:29.044Z,40.33
2023-01-21T13:02:14.495Z,42.70
2023-01-21T13:04:51.439Z,52.35
2023-01-21T13:07:42.073Z,43.97
2023-01-21T13:10:27.213Z,42.67
2023-01-21T13:13:06.369Z,44.10
2023-01-21T13:15:36.076Z,44.70
2023-01-21T13:18:13.151Z,44.83
2023-01-21T13:20:47.643Z,44.97
2023-01-21T13:23:26.558Z,44.17
2023-01-21T13:25:56.775Z,38.60
2023-01-21T13:28:42.066Z,47.40
2023-01-21T13:31:28.611Z,44.75
2023-01-21T13:34:17.071Z,41.38
2023-01-21T13:37:06.678Z,35.78
2023-01-21T13:39:46.373Z,40.85
2023-01-21T13:42:23.534Z,47.08
2023-01-21T13:45:30.569Z,35.33
2023-01-21T13:48:17.613Z,31.65
2023-01-21T13:50:53.785Z,35.60
2023-01-21T13:54:12.279Z,33.15
2023-01-21T13:57:00.372Z,28.85
2023-01-21T13:59:50.146Z,28.33
2023-01-21T14:02:32.441Z,31.85
2023-01-21T14:05:12.107Z,27.80
2023-01-21T14:07:47.306Z,46.60
2023-01-21T14:10:42.146Z,28.60
2023-01-21T14:13:27.927Z,31.13
2023-01-21T14:15:57.850Z,29.80
2023-01-21T14:18:43.147Z,36.78
2023-01-21T14:21:10.427Z,32.08
2023-01-21T14:24:18.227Z,31.63
2023-01-21T14:26:48.363Z,39.25
2023-01-21T14:29:29.937Z,36.88
2023-01-21T14:32:04.931Z,36.63
2023-01-21T14:34:43.407Z,47.25
2023-01-21T14:37:30.630Z,29.63
2023-01-21T14:40:18.716Z,30.63
2023-01-21T14:42:53.332Z,33.40
2023-01-21T14:45:23.465Z,30.77
2023-01-21T14:47:58.564Z,32.78
2023-01-21T14:50:47.123Z,26.85
2023-01-21T14:53:24.078Z,32.47
2023-01-21T14:56:33.728Z,26.02
2023-01-21T14:59:04.780Z,29.00
2023-01-21T15:01:43.632Z,25.42
2023-01-21T15:04:41.144Z,28.48
2023-01-21T15:07:19.028Z,25.27
2023-01-21T15:09:54.263Z,30.02
2023-01-21T15:12:27.197Z,30.42
2023-01-21T15:15:00.776Z,27.55
2023-01-21T15:17:47.222Z,25.25
2023-01-21T15:20:43.002Z,26.48
2023-01-21T15:23:29.866Z,25.67
2023-01-21T15:26:20.340Z,27.17
2023-01-21T15:28:49.569Z,27.45
2023-01-21T15:31:23.615Z,31.08
2023-01-21T15:34:01.859Z,27.05
2023-01-21T15:36:38.171Z,30.70
2023-01-21T15:39:16.435Z,27.42
2023-01-21T15:41:57.119Z,31.35
2023-01-21T15:44:32.066Z,33.63
2023-01-21T15:47:07.334Z,27.25
2023-01-21T15:49:53.557Z,28.45
2023-01-21T15:53:02.104Z,23.65
2023-01-21T15:56:17.951Z,26.25
2023-01-21T15:59:08.533Z,28.42
2023-01-21T16:01:38.112Z,26.63
2023-01-21T16:04:49.696Z,28.15
2023-01-21T16:07:26.827Z,23.30
2023-01-21T16:10:27.178Z,32.78
2023-01-21T16:13:19.814Z,34.22
2023-01-21T16:16:20.432Z,32.50
2023-01-21T16:18:56.318Z,35.15
2023-01-21T16:21:32.018Z,27.15
2023-01-21T16:24:05.845Z,28.13
2023-01-21T16:26:33.298Z,25.33
2023-01-21T16:29:00.451Z,28.13
2023-01-21T16:31:27.894Z,31.50
2023-01-21T16:33:55.739Z,28.08
2023-01-21T16:36:23.044Z,29.92
2023-01-21T16:38:50.255Z,26.88
2023-01-21T16:41:24.072Z,29.30
2023-01-21T16:44:00.280Z,37.58
2023-01-21T16:46:38.191Z,37.05
2023-01-21T16:49:14.025Z,23.40
2023-01-21T16:51:50.685Z,26.35
2023-01-21T16:54:17.829Z,28.85
2023-01-21T16:57:00.238Z,31.40
2023-01-21T16:59:42.085Z,29.85
2023-01-21T17:02:22.325Z,25.52
2023-01-21T17:04:49.708Z,34.65
2023-01-21T17:07:21.858Z,25.67
2023-01-21T17:10:17.176Z,35.55
2023-01-21T17:12:55.451Z,26.73
2023-01-21T17:15:36.198Z,30.85
2023-01-21T17:18:05.865Z,34.90
2023-01-21T17:20:42.068Z,32.58
2023-01-21T17:23:29.558Z,22.52
2023-01-21T17:26:19.370Z,26.88
2023-01-21T17:28:53.708Z,18.85
2023-01-21T17:31:26.434Z,24.80
2023-01-21T17:34:14.740Z,23.55
2023-01-21T17:36:50.555Z,29.58
2023-01-21T17:39:57.756Z,32.63
2023-01-21T17:42:29.752Z,24.33
2023-01-21T17:45:04.564Z,25.60
2023-01-21T17:47:35.573Z,27.90
2023-01-21T17:50:22.108Z,25.30
2023-01-21T17:52:52.373Z,22.23
2023-01-21T17:55:19.515Z,32.85
2023-01-21T17:57:46.676Z,24.67
2023-01-21T18:00:36.852Z,23.27
2023-01-21T18:03:04.134Z,29.88
2023-01-21T18:05:31.439Z,32.92
2023-01-21T18:07:58.856Z,31.02
2023-01-21T18:10:29.450Z,32.17
2023-01-21T18:12:58.163Z,32.72
2023-01-21T18:15:26.627Z,35.72
2023-01-21T18:18:00.122Z,29.50
2023-01-21T18:20:29.493Z,25.80
2023-01-21T18:22:58.751Z,28.77
2023-01-21T18:25:27.378Z,25.35
2023-01-21T18:27:55.525Z,40.25
2023-01-21T18:30:27.777Z,32.80
2023-01-21T18:32:56.942Z,49.70
2023-01-21T18:35:29.390Z,31.73
2023-01-21T18:37:57.095Z,48.38
2023-01-21T18:40:24.332Z,45.22
2023-01-21T18:42:55.643Z,56.35
2023-01-21T18:45:27.463Z,45.80
2023-01-21T18:47:56.709Z,136.65
2023-01-21T18:50:26.222Z,72.65
2023-01-21T18:52:53.806Z,42.28
2023-01-21T18:55:25.222Z,168.57
2023-01-21T18:57:52.882Z,131.88
2023-01-21T19:00:29.090Z,167.13
2023-01-21T19:02:58.698Z,91.72
2023-01-21T19:05:47.612Z,92.07
2023-01-21T19:08:21.803Z,79.15
2023-01-21T19:10:48.905Z,73.03
2023-01-21T19:13:16.158Z,141.68
2023-01-21T19:15:45.255Z,167.25
2023-01-21T19:18:14.926Z,161.48
2023-01-21T19:20:43.157Z,132.25
2023-01-21T19:23:17.522Z,73.13
2023-01-21T19:25:51.226Z,119.68
2023-01-21T19:28:18.785Z,165.65
2023-01-21T19:30:46.374Z,165.90
2023-01-21T19:33:13.460Z,124.72
2023-01-21T19:35:44.806Z,161.68
2023-01-21T19:38:15.122Z,208.43
2023-01-21T19:40:43.067Z,272.65
2023-01-21T19:43:14.417Z,209.27
2023-01-21T19:45:43.023Z,126.85
2023-01-21T19:48:15.798Z,114.20
2023-01-21T19:50:43.814Z,139.45
2023-01-21T19:53:15.333Z,153.30
2023-01-21T19:55:44.184Z,137.70
2023-01-21T19:58:20.548Z,106.13
2023-01-21T20:00:49.677Z,85.18
2023-01-21T20:03:18.557Z,151.48
2023-01-21T20:05:47.940Z,204.02
2023-01-21T20:08:25.188Z,181.80
2023-01-21T20:10:52.345Z,57.50
2023-01-21T20:13:19.606Z,73.32
2023-01-21T20:15:48.262Z,86.95
2023-01-21T20:18:22.767Z,184.30
2023-01-21T20:20:50.323Z,77.30
2023-01-21T20:23:19.657Z,169.82
2023-01-21T20:25:51.037Z,140.02
2023-01-21T20:28:51.133Z,135.48
2023-01-21T20:31:18.901Z,119.32
2023-01-21T20:33:46.376Z,72.30
2023-01-21T20:36:22.735Z,180.57
2023-01-21T20:38:50.198Z,206.25
2023-01-21T20:41:17.400Z,80.95
2023-01-21T20:43:44.646Z,169.32
2023-01-21T20:46:14.701Z,92.20
2023-01-21T20:48:43.874Z,131.32
2023-01-21T20:51:12.154Z,129.50
2023-01-21T20:53:39.633Z,40.50
2023-01-21T20:56:23.344Z,65.95
2023-01-21T20:58:50.638Z,172.85
2023-01-21T21:01:20.183Z,67.03
2023-01-21T21:03:48.157Z,71.68
2023-01-21T21:06:19.049Z,60.28
2023-01-21T21:08:47.013Z,45.72
2023-01-21T21:11:15.486Z,88.82
2023-01-21T21:13:43.477Z,119.70
2023-01-21T21:16:21.853Z,129.07
2023-01-21T21:18:49.403Z,145.45
2023-01-21T21:21:17.209Z,126.80
2023-01-21T21:23:47.451Z,107.13
2023-01-21T21:26:33.439Z,70.57
2023-01-21T21:29:00.617Z,38.85
2023-01-21T21:31:32.764Z,43.90
2023-01-21T21:34:00.347Z,60.03
2023-01-21T21:36:27.438Z,54.83
2023-01-21T21:38:57.300Z,76.47
2023-01-21T21:41:44.927Z,76.88
2023-01-21T21:44:13.606Z,45.42
2023-01-21T21:46:59.684Z,80.60
2023-01-21T21:49:27.548Z,51.50
2023-01-21T21:51:54.962Z,39.58
2023-01-21T21:54:23.509Z,39.83
2023-01-21T21:56:50.564Z,50.40
2023-01-21T21:59:17.644Z,72.88
2023-01-21T22:01:44.826Z,44.97
2023-01-21T22:04:12.291Z,56.40
2023-01-21T22:06:39.580Z,49.53
2023-01-21T22:09:07.444Z,71.03
2023-01-21T22:11:34.652Z,70.03
2023-01-21T22:14:04.016Z,32.78
2023-01-21T22:16:32.363Z,66.70
2023-01-21T22:19:01.090Z,80.03
2023-01-21T22:21:31.828Z,31.92
2023-01-21T22:23:59.849Z,67.10
2023-01-21T22:26:28.529Z,65.03
2023-01-21T22:28:56.604Z,95.00
2023-01-21T22:31:28.904Z,73.20
2023-01-21T22:33:57.574Z,40.05
2023-01-21T22:36:26.857Z,47.70
2023-01-21T22:38:57.043Z,84.05
2023-01-21T22:41:25.383Z,58.10
2023-01-21T22:43:53.309Z,70.13
2023-01-21T22:46:30.053Z,34.58
2023-01-21T22:48:57.626Z,33.65
2023-01-21T22:51:25.339Z,32.95
2023-01-21T22:53:53.310Z,24.90
2023-01-21T22:56:28.184Z,53.85
2023-01-21T22:59:07.406Z,47.80
2023-01-21T23:01:36.400Z,28.42
2023-01-21T23:04:03.509Z,30.33
2023-01-21T23:06:30.641Z,53.75
2023-01-21T23:08:57.700Z,34.42
2023-01-21T23:11:25.211Z,31.40
2023-01-21T23:13:57.292Z,38.83
2023-01-21T23:16:25.005Z,102.72
2023-01-21T23:18:52.227Z,29.55
2023-01-21T23:21:21.323Z,26.75
2023-01-21T23:23:49.416Z,31.15
2023-01-21T23:26:19.262Z,23.25
2023-01-21T23:28:46.562Z,25.35
2023-01-21T23:31:17.197Z,26.13
2023-01-21T23:33:44.518Z,29.17
2023-01-21T23:36:15.757Z,24.17
2023-01-21T23:38:45.785Z,26.90
2023-01-21T23:41:16.812Z,27.25
2023-01-21T23:43:44.121Z,24.90
2023-01-21T23:46:16.338Z,25.20
2023-01-21T23:48:43.875Z,34.45
2023-01-21T23:51:15.499Z,31.60
2023-01-21T23:53:44.020Z,29.25
2023-01-21T23:56:19.391Z,22.30
2023-01-21T23:58:46.587Z,24.95
